createdAt,value
2022-08-14T00:02:05.371Z,24.50
2022-08-14T00:04:41.986Z,24.40
2022-08-14T00:07:14.028Z,24.50
2022-08-14T00:09:56.027Z,24.40
2022-08-14T00:12:33.147Z,24.40
2022-08-14T00:15:07.484Z,24.30
2022-08-14T00:17:38.183Z,24.20
2022-08-14T00:20:14.720Z,24.30
2022-08-14T00:22:57.617Z,24.40
2022-08-14T00:25:26.715Z,24.30
2022-08-14T00:28:15.152Z,24.10
2022-08-14T00:30:45.036Z,24.20
2022-08-14T00:33:14.524Z,24.10
2022-08-14T00:36:35.938Z,24.20
2022-08-14T00:38:29.796Z,24.20
2022-08-14T00:40:59.009Z,24.10
2022-08-14T00:43:25.820Z,24.00
2022-08-14T00:46:03.101Z,24.00
2022-08-14T00:48:36.778Z,24.00
2022-08-14T00:51:07.616Z,24.10
2022-08-14T00:53:36.341Z,24.00
2022-08-14T00:56:07.201Z,24.00
2022-08-14T00:58:36.381Z,24.00
2022-08-14T01:01:12.710Z,23.90
2022-08-14T01:03:42.387Z,23.90
2022-08-14T01:06:12.011Z,24.00
2022-08-14T01:08:58.121Z,24.00
2022-08-14T01:11:35.286Z,23.80
2022-08-14T01:14:05.019Z,23.90
2022-08-14T01:16:53.093Z,23.90
2022-08-14T01:19:41.231Z,23.70
2022-08-14T01:22:12.287Z,23.60
2022-08-14T01:24:41.316Z,23.70
2022-08-14T01:27:24.994Z,23.60
2022-08-14T01:30:00.719Z,23.60
2022-08-14T01:32:42.515Z,23.50
2022-08-14T01:35:18.269Z,23.30
2022-08-14T01:37:58.280Z,23.30
2022-08-14T01:40:33.044Z,23.30
2022-08-14T01:43:02.558Z,23.20
2022-08-14T01:45:31.510Z,23.30
2022-08-14T01:48:13.308Z,23.30
2022-08-14T01:50:42.036Z,23.20
2022-08-14T01:53:09.542Z,23.10
2022-08-14T01:55:40.510Z,23.20
2022-08-14T01:58:18.432Z,23.10
2022-08-14T02:00:48.149Z,23.10
2022-08-14T02:03:16.609Z,23.10
2022-08-14T02:05:43.531Z,23.10
2022-08-14T02:08:10.770Z,23.00
2022-08-14T02:10:46.803Z,23.10
2022-08-14T02:13:16.554Z,23.00
2022-08-14T02:15:45.446Z,23.00
2022-08-14T02:18:15.526Z,23.00
2022-08-14T02:20:42.673Z,23.00
2022-08-14T02:23:09.696Z,23.00
2022-08-14T02:25:39.482Z,23.10
2022-08-14T02:28:22.428Z,23.00
2022-08-14T02:30:53.367Z,23.00
2022-08-14T02:33:22.591Z,22.90
2022-08-14T02:35:53.274Z,22.90
2022-08-14T02:38:30.144Z,22.80
2022-08-14T02:41:01.450Z,22.80
2022-08-14T02:43:36.502Z,22.90
2022-08-14T02:46:06.398Z,22.70
2022-08-14T02:49:02.507Z,22.80
2022-08-14T02:51:30.613Z,22.80
2022-08-14T02:53:58.495Z,22.80
2022-08-14T02:56:30.675Z,22.60
2022-08-14T02:59:17.912Z,22.70
2022-08-14T03:01:50.923Z,22.60
2022-08-14T03:04:22.004Z,22.60
2022-08-14T03:06:57.625Z,22.60
2022-08-14T03:09:42.319Z,22.70
2022-08-14T03:12:26.978Z,22.70
2022-08-14T03:15:16.288Z,22.60
2022-08-14T03:20:28.266Z,22.60
2022-08-14T03:23:00.182Z,22.60
2022-08-14T03:25:34.134Z,22.60
2022-08-14T03:28:14.453Z,22.50
2022-08-14T03:30:57.587Z,22.60
2022-08-14T03:33:27.943Z,22.60
2022-08-14T03:37:37.370Z,22.50
2022-08-14T03:39:14.169Z,22.50
2022-08-14T03:41:51.413Z,22.40
2022-08-14T03:45:25.561Z,22.30
2022-08-14T03:47:06.441Z,22.30
2022-08-14T03:49:34.158Z,22.40
2022-08-14T03:52:04.929Z,22.30
2022-08-14T03:54:52.631Z,22.30
2022-08-14T03:57:20.275Z,22.30
2022-08-14T03:59:49.979Z,22.20
2022-08-14T04:02:33.002Z,22.20
2022-08-14T04:05:16.735Z,22.00
2022-08-14T04:07:49.752Z,21.90
2022-08-14T04:10:32.635Z,21.90
2022-08-14T04:13:03.260Z,22.00
2022-08-14T04:15:32.196Z,22.00
2022-08-14T04:18:19.108Z,22.00
2022-08-14T04:20:54.388Z,21.90
2022-08-14T04:23:23.631Z,21.90
2022-08-14T04:25:56.036Z,22.00
2022-08-14T04:29:07.409Z,21.90
2022-08-14T04:31:11.449Z,22.00
2022-08-14T04:33:38.709Z,21.90
2022-08-14T04:36:06.065Z,21.90
2022-08-14T04:38:54.905Z,21.90
2022-08-14T04:41:43.268Z,21.90
2022-08-14T04:44:10.177Z,21.90
2022-08-14T04:47:12.058Z,21.80
2022-08-14T04:49:46.703Z,21.80
2022-08-14T04:52:25.047Z,21.80
2022-08-14T04:54:52.495Z,21.80
2022-08-14T04:57:21.925Z,21.80
2022-08-14T04:59:50.910Z,21.90
2022-08-14T05:02:18.303Z,21.80
2022-08-14T05:04:57.384Z,21.80
2022-08-14T05:07:46.404Z,21.70
2022-08-14T05:10:16.724Z,21.70
2022-08-14T05:13:13.260Z,21.80
2022-08-14T05:15:40.823Z,21.70
2022-08-14T05:18:37.162Z,21.70
2022-08-14T05:21:58.292Z,21.70
2022-08-14T05:23:50.005Z,21.80
2022-08-14T05:26:18.295Z,21.80
2022-08-14T05:28:48.483Z,21.90
2022-08-14T05:31:20.314Z,21.80
2022-08-14T05:33:56.788Z,21.80
2022-08-14T05:36:25.264Z,21.90
2022-08-14T05:38:53.995Z,21.80
2022-08-14T05:41:22.923Z,21.80
2022-08-14T05:43:54.439Z,21.90
2022-08-14T05:46:24.858Z,21.90
2022-08-14T05:48:57.487Z,21.90
2022-08-14T05:51:25.673Z,21.90
2022-08-14T05:54:01.385Z,21.90
2022-08-14T05:56:37.273Z,21.80
2022-08-14T05:59:05.511Z,22.00
2022-08-14T06:01:32.481Z,22.00
2022-08-14T06:04:00.435Z,22.00
2022-08-14T06:06:27.243Z,22.10
2022-08-14T06:08:54.272Z,22.10
2022-08-14T06:11:27.968Z,22.10
2022-08-14T06:13:58.646Z,22.10
2022-08-14T06:16:25.928Z,22.00
2022-08-14T06:18:53.269Z,22.10
2022-08-14T06:21:22.648Z,22.10
2022-08-14T06:23:49.931Z,22.20
2022-08-14T06:26:20.595Z,22.10
2022-08-14T06:28:52.117Z,22.30
2022-08-14T06:31:20.707Z,22.40
2022-08-14T06:35:09.491Z,22.20
2022-08-14T06:36:36.667Z,22.20
2022-08-14T06:39:04.328Z,22.20
2022-08-14T06:41:58.176Z,22.30
2022-08-14T06:44:30.624Z,22.40
2022-08-14T06:47:04.311Z,22.30
2022-08-14T06:49:44.070Z,22.50
2022-08-14T06:52:15.267Z,22.50
2022-08-14T06:54:43.644Z,22.60
2022-08-14T06:57:11.665Z,22.70
2022-08-14T06:59:40.093Z,22.80
2022-08-14T07:02:28.823Z,22.80
2022-08-14T07:05:16.877Z,22.80
2022-08-14T07:07:48.505Z,22.90
2022-08-14T07:10:17.310Z,23.00
2022-08-14T07:13:01.899Z,23.00
2022-08-14T07:15:34.195Z,23.10
2022-08-14T07:18:09.023Z,23.20
2022-08-14T07:20:36.345Z,23.20
2022-08-14T07:23:09.147Z,23.30
2022-08-14T07:25:39.429Z,23.30
2022-08-14T07:28:21.341Z,23.40
2022-08-14T07:30:51.169Z,23.50
2022-08-14T07:33:20.882Z,23.60
2022-08-14T07:35:58.695Z,23.70
2022-08-14T07:38:34.073Z,23.70
2022-08-14T07:41:12.057Z,23.70
2022-08-14T07:43:42.801Z,23.80
2022-08-14T07:46:10.967Z,23.90
2022-08-14T07:48:43.893Z,24.00
2022-08-14T07:51:11.504Z,24.10
2022-08-14T07:53:40.484Z,24.10
2022-08-14T07:56:22.026Z,24.20
2022-08-14T07:58:58.759Z,24.20
2022-08-14T08:01:27.823Z,24.30
2022-08-14T08:04:00.185Z,24.40
2022-08-14T08:06:29.564Z,24.50
2022-08-14T08:09:02.918Z,24.60
2022-08-14T08:11:37.563Z,24.70
2022-08-14T08:14:16.336Z,24.80
2022-08-14T08:16:47.441Z,24.90
2022-08-14T08:19:19.237Z,25.00
2022-08-14T08:21:47.180Z,25.00
2022-08-14T08:24:20.128Z,25.10
2022-08-14T08:26:50.307Z,25.10
2022-08-14T08:29:24.925Z,25.30
2022-08-14T08:31:55.265Z,25.40
2022-08-14T08:34:23.729Z,25.40
2022-08-14T08:36:51.647Z,25.60
2022-08-14T08:39:22.692Z,25.50
2022-08-14T08:41:53.635Z,25.70
2022-08-14T08:44:32.195Z,25.80
2022-08-14T08:47:05.763Z,25.80
2022-08-14T08:49:58.914Z,25.80
2022-08-14T08:52:31.670Z,26.00
2022-08-14T08:55:00.735Z,26.20
2022-08-14T08:57:33.583Z,26.20
2022-08-14T09:00:02.143Z,26.20
2022-08-14T09:02:29.435Z,26.20
2022-08-14T09:05:03.845Z,26.40
2022-08-14T09:07:31.444Z,26.50
2022-08-14T09:10:00.332Z,26.40
2022-08-14T09:12:33.336Z,26.60
2022-08-14T09:15:09.009Z,26.50
2022-08-14T09:17:41.345Z,26.50
2022-08-14T09:20:11.532Z,26.60
2022-08-14T09:22:47.211Z,26.80
2022-08-14T09:25:16.909Z,26.90
2022-08-14T09:27:43.822Z,27.00
2022-08-14T09:30:31.542Z,27.20
2022-08-14T09:33:10.915Z,27.30
2022-08-14T09:36:16.772Z,27.40
2022-08-14T09:39:03.942Z,27.50
2022-08-14T09:42:21.954Z,27.50
2022-08-14T09:44:51.173Z,27.50
2022-08-14T09:47:18.817Z,27.70
2022-08-14T09:49:52.226Z,27.80
2022-08-14T09:52:33.245Z,28.00
2022-08-14T09:55:02.687Z,28.00
2022-08-14T09:57:31.735Z,28.00
2022-08-14T10:00:09.932Z,28.10
2022-08-14T10:03:05.137Z,28.10
2022-08-14T10:05:38.020Z,28.30
2022-08-14T10:08:20.553Z,28.50
2022-08-14T10:10:57.321Z,28.50
2022-08-14T10:13:42.945Z,28.50
2022-08-14T10:16:26.018Z,28.60
2022-08-14T10:19:09.729Z,28.90
2022-08-14T10:21:45.746Z,28.80
2022-08-14T10:24:36.944Z,28.60
2022-08-14T10:27:05.220Z,28.80
2022-08-14T10:29:41.118Z,28.90
2022-08-14T10:32:17.806Z,29.10
2022-08-14T10:34:46.781Z,29.30
2022-08-14T10:37:23.002Z,29.60
2022-08-14T10:40:10.352Z,29.10
2022-08-14T10:42:40.677Z,29.40
2022-08-14T10:45:35.535Z,29.40
2022-08-14T10:48:25.066Z,29.80
2022-08-14T10:51:01.144Z,29.70
2022-08-14T10:53:32.991Z,29.40
2022-08-14T10:56:04.442Z,30.10
2022-08-14T10:58:34.257Z,30.10
2022-08-14T11:01:05.650Z,29.90
2022-08-14T11:03:56.570Z,29.50
2022-08-14T11:06:27.283Z,30.10
2022-08-14T11:08:55.287Z,30.20
2022-08-14T11:11:35.854Z,30.30
2022-08-14T11:14:09.313Z,30.30
2022-08-14T11:19:08.461Z,30.40
2022-08-14T11:21:40.548Z,30.50
2022-08-14T11:24:54.050Z,30.30
2022-08-14T11:27:05.598Z,30.10
2022-08-14T11:29:36.064Z,30.00
2022-08-14T11:32:04.355Z,30.00
2022-08-14T11:34:35.966Z,30.40
2022-08-14T11:37:20.741Z,30.50
2022-08-14T11:39:53.862Z,30.50
2022-08-14T11:42:57.806Z,30.30
2022-08-14T11:45:18.689Z,30.00
2022-08-14T11:48:12.942Z,29.90
2022-08-14T11:50:38.553Z,30.40
2022-08-14T11:53:07.856Z,30.60
2022-08-14T11:55:38.803Z,30.70
2022-08-14T11:58:11.752Z,30.90
2022-08-14T12:00:53.838Z,30.80
2022-08-14T12:03:27.209Z,30.80
2022-08-14T12:06:27.796Z,30.70
2022-08-14T12:09:00.140Z,31.10
2022-08-14T12:11:43.910Z,31.00
2022-08-14T12:14:31.096Z,30.80
2022-08-14T12:17:11.911Z,30.90
2022-08-14T12:19:54.403Z,31.10
2022-08-14T12:22:42.333Z,30.80
2022-08-14T12:25:24.932Z,31.00
2022-08-14T12:27:59.308Z,31.60
2022-08-14T12:30:43.000Z,31.00
2022-08-14T12:33:33.844Z,31.10
2022-08-14T12:36:05.854Z,31.40
2022-08-14T12:38:43.777Z,31.30
2022-08-14T12:41:20.572Z,31.30
2022-08-14T12:44:05.993Z,31.40
2022-08-14T12:46:36.701Z,31.40
2022-08-14T12:49:13.388Z,31.80
2022-08-14T12:51:55.292Z,31.40
2022-08-14T12:54:28.596Z,31.50
2022-08-14T12:57:42.028Z,31.40
2022-08-14T13:00:23.173Z,31.50
2022-08-14T13:02:54.860Z,31.70
2022-08-14T13:05:34.963Z,31.70
2022-08-14T13:08:06.057Z,31.50
2022-08-14T13:10:58.249Z,31.50
2022-08-14T13:13:34.430Z,31.60
2022-08-14T13:16:05.207Z,31.80
2022-08-14T13:18:48.425Z,31.60
2022-08-14T13:21:26.370Z,31.80
2022-08-14T13:23:54.440Z,31.80
2022-08-14T13:26:24.186Z,31.60
2022-08-14T13:29:01.465Z,31.70
2022-08-14T13:31:34.292Z,31.60
2022-08-14T13:34:03.329Z,31.70
2022-08-14T13:36:51.832Z,31.60
2022-08-14T13:39:20.880Z,31.90
2022-08-14T13:41:56.101Z,32.00
2022-08-14T13:44:27.012Z,32.10
2022-08-14T13:46:53.863Z,32.20
2022-08-14T13:49:21.041Z,32.10
2022-08-14T13:51:57.746Z,31.80
2022-08-14T13:54:30.098Z,32.00
2022-08-14T13:57:01.066Z,32.10
2022-08-14T14:02:08.065Z,32.40
2022-08-14T14:04:40.380Z,32.20
2022-08-14T14:07:14.149Z,32.50
2022-08-14T14:09:52.831Z,32.50
2022-08-14T14:12:37.744Z,32.50
2022-08-14T14:15:09.826Z,32.30
2022-08-14T14:17:39.641Z,32.30
2022-08-14T14:20:15.166Z,32.50
2022-08-14T14:23:02.764Z,32.40
2022-08-14T14:25:45.579Z,32.10
2022-08-14T14:28:23.907Z,31.50
2022-08-14T14:30:57.024Z,31.30
2022-08-14T14:33:45.306Z,31.30
2022-08-14T14:36:14.762Z,31.30
2022-08-14T14:38:44.280Z,31.00
2022-08-14T14:41:14.746Z,31.00
2022-08-14T14:43:44.839Z,31.00
2022-08-14T14:46:14.543Z,31.30
2022-08-14T14:48:46.781Z,31.30
2022-08-14T14:51:22.196Z,31.30
2022-08-14T14:53:49.312Z,31.10
2022-08-14T14:56:50.316Z,31.00
2022-08-14T14:59:03.351Z,31.00
2022-08-14T15:01:35.624Z,30.90
2022-08-14T15:04:08.071Z,30.70
2022-08-14T15:06:53.086Z,30.60
2022-08-14T15:09:20.575Z,30.60
2022-08-14T15:11:50.924Z,30.60
2022-08-14T15:14:56.166Z,30.60
2022-08-14T15:17:06.462Z,30.70
2022-08-14T15:19:33.392Z,31.00
2022-08-14T15:22:00.543Z,31.20
2022-08-14T15:24:27.487Z,31.40
2022-08-14T15:26:57.149Z,31.50
2022-08-14T15:29:27.188Z,31.50
2022-08-14T15:31:54.176Z,31.10
2022-08-14T15:34:44.040Z,31.00
2022-08-14T15:37:10.803Z,30.90
2022-08-14T15:39:41.239Z,31.30
2022-08-14T15:42:14.581Z,31.60
2022-08-14T15:44:58.181Z,31.40
2022-08-14T15:47:30.919Z,31.50
2022-08-14T15:50:03.044Z,31.70
2022-08-14T15:52:37.079Z,31.80
2022-08-14T15:55:08.624Z,31.80
2022-08-14T15:57:37.065Z,31.60
2022-08-14T16:00:43.370Z,31.40
2022-08-14T16:03:15.580Z,31.70
2022-08-14T16:05:44.017Z,31.80
2022-08-14T16:08:28.731Z,31.80
2022-08-14T16:10:57.604Z,31.50
2022-08-14T16:13:42.004Z,31.40
2022-08-14T16:16:48.005Z,31.30
2022-08-14T16:19:11.308Z,31.30
2022-08-14T16:22:01.474Z,31.20
2022-08-14T16:24:33.185Z,31.30
2022-08-14T16:27:01.615Z,31.60
2022-08-14T16:29:34.474Z,31.60
2022-08-14T16:32:33.094Z,31.60
2022-08-14T16:34:54.929Z,31.30
2022-08-14T16:37:30.903Z,31.50
2022-08-14T16:40:03.399Z,31.50
2022-08-14T16:43:02.387Z,31.40
2022-08-14T16:45:28.747Z,31.30
2022-08-14T16:47:56.844Z,31.30
2022-08-14T16:50:43.446Z,31.30
2022-08-14T16:53:10.534Z,31.30
2022-08-14T16:55:51.120Z,31.30
2022-08-14T16:58:27.147Z,31.10
2022-08-14T17:01:24.811Z,31.10
2022-08-14T17:04:01.110Z,30.90
2022-08-14T17:06:42.981Z,30.90
2022-08-14T17:09:24.586Z,30.80
2022-08-14T17:12:07.566Z,30.70
2022-08-14T17:14:54.739Z,30.70
2022-08-14T17:17:26.573Z,30.60
2022-08-14T17:20:01.080Z,30.60
2022-08-14T17:22:58.336Z,30.70
2022-08-14T17:25:36.414Z,30.80
2022-08-14T17:28:52.073Z,30.80
2022-08-14T17:31:08.434Z,30.80
2022-08-14T17:33:44.334Z,30.70
2022-08-14T17:36:23.205Z,30.70
2022-08-14T17:39:08.541Z,30.70
2022-08-14T17:42:02.858Z,30.60
2022-08-14T17:44:42.422Z,30.60
2022-08-14T17:47:14.864Z,30.50
2022-08-14T17:49:47.727Z,30.60
2022-08-14T17:52:34.326Z,30.50
2022-08-14T17:55:12.743Z,30.40
2022-08-14T17:57:58.739Z,30.40
2022-08-14T18:00:26.314Z,30.30
2022-08-14T18:02:57.423Z,30.30
2022-08-14T18:06:09.964Z,30.20
2022-08-14T18:08:33.732Z,30.20
2022-08-14T18:11:03.340Z,30.20
2022-08-14T18:13:50.719Z,30.10
2022-08-14T18:16:22.513Z,29.80
2022-08-14T18:18:51.236Z,29.70
2022-08-14T18:21:42.735Z,29.60
2022-08-14T18:24:28.258Z,29.40
2022-08-14T18:27:17.306Z,29.30
2022-08-14T18:30:32.133Z,29.10
2022-08-14T18:32:55.101Z,28.90
2022-08-14T18:35:45.720Z,28.70
2022-08-14T18:38:25.997Z,28.70
2022-08-14T18:41:37.529Z,28.70
2022-08-14T18:44:10.296Z,28.60
2022-08-14T18:47:10.057Z,28.70
2022-08-14T18:50:26.363Z,28.70
2022-08-14T18:52:53.620Z,28.60
2022-08-14T18:55:21.226Z,28.60
2022-08-14T18:58:20.795Z,28.60
2022-08-14T19:00:56.038Z,28.40
2022-08-14T19:03:36.396Z,28.30
2022-08-14T19:06:09.086Z,28.40
2022-08-14T19:08:47.602Z,28.40
2022-08-14T19:11:32.782Z,28.40
2022-08-14T19:14:04.981Z,28.30
2022-08-14T19:16:34.230Z,28.30
2022-08-14T19:19:08.584Z,28.10
2022-08-14T19:21:55.267Z,28.20
2022-08-14T19:24:34.249Z,28.20
2022-08-14T19:27:23.637Z,28.10
2022-08-14T19:30:20.514Z,27.90
2022-08-14T19:32:51.065Z,27.90
2022-08-14T19:35:24.948Z,27.80
2022-08-14T19:38:32.490Z,27.70
2022-08-14T19:41:01.628Z,27.60
2022-08-14T19:43:50.654Z,27.60
2022-08-14T19:46:39.215Z,27.50
2022-08-14T19:49:23.421Z,27.50
2022-08-14T19:52:03.546Z,27.50
2022-08-14T19:54:31.657Z,27.60
2022-08-14T19:57:03.049Z,27.60
2022-08-14T19:59:36.626Z,27.50
2022-08-14T20:02:29.839Z,27.50
2022-08-14T20:04:59.377Z,27.50
2022-08-14T20:08:00.406Z,27.50
2022-08-14T20:11:05.557Z,27.50
2022-08-14T20:13:32.746Z,27.50
2022-08-14T20:16:12.195Z,27.40
2022-08-14T20:18:51.575Z,27.40
2022-08-14T20:21:21.694Z,27.40
2022-08-14T20:23:49.604Z,27.50
2022-08-14T20:26:32.050Z,27.40
2022-08-14T20:29:05.238Z,27.40
2022-08-14T20:31:37.519Z,27.40
2022-08-14T20:34:18.850Z,27.40
2022-08-14T20:37:09.941Z,27.40
2022-08-14T20:39:54.551Z,27.30
2022-08-14T20:42:43.527Z,27.20
2022-08-14T20:45:23.866Z,27.20
2022-08-14T20:48:09.004Z,27.20
2022-08-14T20:50:36.908Z,27.10
2022-08-14T20:53:32.494Z,27.20
2022-08-14T20:56:27.707Z,27.20
2022-08-14T20:58:51.307Z,27.10
2022-08-14T21:01:19.054Z,27.10
2022-08-14T21:03:57.305Z,27.10
2022-08-14T21:07:22.716Z,27.00
2022-08-14T21:10:04.974Z,27.00
2022-08-14T21:12:34.863Z,27.00
2022-08-14T21:15:00.788Z,27.00
2022-08-14T21:17:30.794Z,27.00
2022-08-14T21:19:58.379Z,26.90
2022-08-14T21:22:26.895Z,26.80
2022-08-14T21:25:01.536Z,26.80
2022-08-14T21:27:37.323Z,26.70
2022-08-14T21:30:08.542Z,26.70
2022-08-14T21:32:50.062Z,26.70
2022-08-14T21:35:24.591Z,26.80
2022-08-14T21:37:52.618Z,26.80
2022-08-14T21:40:40.834Z,26.60
2022-08-14T21:43:17.679Z,26.70
2022-08-14T21:45:56.166Z,26.70
2022-08-14T21:48:29.547Z,26.60
2022-08-14T21:51:53.250Z,26.50
2022-08-14T21:53:58.633Z,26.50
2022-08-14T21:56:38.395Z,26.50
2022-08-14T21:59:17.546Z,26.50
2022-08-14T22:02:00.098Z,26.50
2022-08-14T22:04:34.202Z,26.50
2022-08-14T22:07:10.951Z,26.50
2022-08-14T22:09:43.026Z,26.40
2022-08-14T22:12:45.420Z,26.40
2022-08-14T22:15:03.700Z,26.30
2022-08-14T22:17:34.270Z,26.20
2022-08-14T22:20:05.137Z,26.20
2022-08-14T22:22:32.178Z,26.30
2022-08-14T22:25:00.556Z,26.10
2022-08-14T22:27:32.286Z,26.10
2022-08-14T22:30:00.282Z,26.20
2022-08-14T22:32:56.047Z,26.20
2022-08-14T22:35:15.582Z,26.20
2022-08-14T22:37:44.762Z,26.10
2022-08-14T22:40:16.975Z,26.10
2022-08-14T22:43:07.585Z,26.00
2022-08-14T22:45:39.402Z,26.00
2022-08-14T22:48:10.900Z,26.00
2022-08-14T22:50:53.147Z,26.00
2022-08-14T22:53:20.973Z,25.90
2022-08-14T22:55:52.034Z,25.80
2022-08-14T22:58:31.349Z,25.70
2022-08-14T23:01:01.082Z,25.70
2022-08-14T23:03:28.722Z,25.70
2022-08-14T23:05:55.728Z,25.70
2022-08-14T23:09:00.399Z,25.60
2022-08-14T23:11:11.433Z,25.60
2022-08-14T23:13:43.704Z,25.60
2022-08-14T23:16:19.883Z,25.50
2022-08-14T23:18:53.865Z,25.50
2022-08-14T23:21:24.396Z,25.40
2022-08-14T23:23:54.924Z,25.40
2022-08-14T23:26:47.938Z,25.30
2022-08-14T23:29:14.592Z,25.30
2022-08-14T23:31:44.759Z,25.40
2022-08-14T23:34:20.843Z,25.20
2022-08-14T23:36:55.634Z,25.30
2022-08-14T23:39:33.072Z,25.30
2022-08-14T23:42:07.630Z,25.10
2022-08-14T23:44:37.541Z,25.10
2022-08-14T23:47:10.578Z,25.10
2022-08-14T23:49:59.995Z,25.10
2022-08-14T23:52:51.380Z,25.10
2022-08-14T23:55:15.993Z,25.10
2022-08-14T23:57:57.603Z,25.10
